sensor_id;sensor_type;location;lat;lon;timestamp;P1;durP1;ratioP1;P2;durP2;ratioP2
6463;SDS011;3265;42.694;23.282;2023-04-28T00:00:46;11.87;;;5.30;;
6463;SDS011;3265;42.694;23.282;2023-04-28T00:03:13;9.07;;;5.70;;
6463;SDS011;3265;42.694;23.282;2023-04-28T00:05:39;14.23;;;5.57;;
6463;SDS011;3265;42.694;23.282;2023-04-28T00:08:08;9.93;;;4.90;;
6463;SDS011;3265;42.694;23.282;2023-04-28T00:10:34;9.57;;;4.83;;
6463;SDS011;3265;42.694;23.282;2023-04-28T00:13:04;9.03;;;4.97;;
6463;SDS011;3265;42.694;23.282;2023-04-28T00:15:31;8.07;;;4.07;;
6463;SDS011;3265;42.694;23.282;2023-04-28T00:17:57;6.23;;;4.33;;
6463;SDS011;3265;42.694;23.282;2023-04-28T00:20:24;8.40;;;4.17;;
6463;SDS011;3265;42.694;23.282;2023-04-28T00:22:51;9.27;;;4.30;;
6463;SDS011;3265;42.694;23.282;2023-04-28T00:25:19;6.53;;;4.73;;
6463;SDS011;3265;42.694;23.282;2023-04-28T00:27:46;10.43;;;4.93;;
6463;SDS011;3265;42.694;23.282;2023-04-28T00:30:13;6.97;;;4.53;;
6463;SDS011;3265;42.694;23.282;2023-04-28T00:32:40;6.93;;;4.10;;
6463;SDS011;3265;42.694;23.282;2023-04-28T00:35:07;6.37;;;4.47;;
6463;SDS011;3265;42.694;23.282;2023-04-28T00:37:35;8.83;;;4.70;;
6463;SDS011;3265;42.694;23.282;2023-04-28T00:40:02;8.60;;;4.50;;
6463;SDS011;3265;42.694;23.282;2023-04-28T00:42:31;12.00;;;4.70;;
6463;SDS011;3265;42.694;23.282;2023-04-28T00:44:58;6.73;;;4.43;;
6463;SDS011;3265;42.694;23.282;2023-04-28T00:47:30;8.10;;;4.20;;
6463;SDS011;3265;42.694;23.282;2023-04-28T00:49:56;6.00;;;4.47;;
6463;SDS011;3265;42.694;23.282;2023-04-28T00:52:23;8.13;;;4.27;;
6463;SDS011;3265;42.694;23.282;2023-04-28T00:54:50;6.37;;;4.50;;
6463;SDS011;3265;42.694;23.282;2023-04-28T00:57:17;6.83;;;4.40;;
6463;SDS011;3265;42.694;23.282;2023-04-28T00:59:46;7.80;;;4.20;;
6463;SDS011;3265;42.694;23.282;2023-04-28T01:02:13;7.10;;;4.30;;
6463;SDS011;3265;42.694;23.282;2023-04-28T01:04:42;7.87;;;4.50;;
6463;SDS011;3265;42.694;23.282;2023-04-28T01:07:10;6.83;;;4.13;;
6463;SDS011;3265;42.694;23.282;2023-04-28T01:09:37;6.50;;;4.27;;
6463;SDS011;3265;42.694;23.282;2023-04-28T01:12:04;7.27;;;4.40;;
6463;SDS011;3265;42.694;23.282;2023-04-28T01:14:31;6.63;;;4.53;;
6463;SDS011;3265;42.694;23.282;2023-04-28T01:17:00;7.97;;;5.00;;
6463;SDS011;3265;42.694;23.282;2023-04-28T01:19:28;7.20;;;4.70;;
6463;SDS011;3265;42.694;23.282;2023-04-28T01:21:54;8.90;;;4.80;;
6463;SDS011;3265;42.694;23.282;2023-04-28T01:24:23;9.73;;;4.93;;
6463;SDS011;3265;42.694;23.282;2023-04-28T01:26:50;9.80;;;5.00;;
6463;SDS011;3265;42.694;23.282;2023-04-28T01:29:17;7.17;;;4.97;;
6463;SDS011;3265;42.694;23.282;2023-04-28T01:31:44;8.87;;;5.17;;
6463;SDS011;3265;42.694;23.282;2023-04-28T01:34:11;9.70;;;4.87;;
6463;SDS011;3265;42.694;23.282;2023-04-28T01:36:38;6.10;;;4.23;;
6463;SDS011;3265;42.694;23.282;2023-04-28T01:39:05;9.40;;;4.47;;
6463;SDS011;3265;42.694;23.282;2023-04-28T01:41:33;8.93;;;5.30;;
6463;SDS011;3265;42.694;23.282;2023-04-28T01:44:00;11.13;;;4.80;;
6463;SDS011;3265;42.694;23.282;2023-04-28T01:46:28;7.37;;;4.47;;
6463;SDS011;3265;42.694;23.282;2023-04-28T01:48:54;6.57;;;4.70;;
6463;SDS011;3265;42.694;23.282;2023-04-28T01:51:21;8.37;;;4.47;;
6463;SDS011;3265;42.694;23.282;2023-04-28T01:53:48;7.23;;;4.77;;
6463;SDS011;3265;42.694;23.282;2023-04-28T01:56:15;8.30;;;4.90;;
6463;SDS011;3265;42.694;23.282;2023-04-28T01:58:43;9.03;;;5.00;;
6463;SDS011;3265;42.694;23.282;2023-04-28T02:01:10;6.97;;;5.20;;
6463;SDS011;3265;42.694;23.282;2023-04-28T02:03:37;8.63;;;4.90;;
6463;SDS011;3265;42.694;23.282;2023-04-28T02:06:04;11.10;;;5.37;;
6463;SDS011;3265;42.694;23.282;2023-04-28T02:08:31;7.87;;;5.03;;
6463;SDS011;3265;42.694;23.282;2023-04-28T02:10:58;10.77;;;5.43;;
6463;SDS011;3265;42.694;23.282;2023-04-28T02:13:25;8.23;;;4.97;;
6463;SDS011;3265;42.694;23.282;2023-04-28T02:15:53;7.33;;;4.93;;
6463;SDS011;3265;42.694;23.282;2023-04-28T02:18:20;15.17;;;5.07;;
6463;SDS011;3265;42.694;23.282;2023-04-28T02:20:47;10.23;;;5.60;;
6463;SDS011;3265;42.694;23.282;2023-04-28T02:23:14;8.63;;;5.37;;
6463;SDS011;3265;42.694;23.282;2023-04-28T02:25:41;8.67;;;5.80;;
6463;SDS011;3265;42.694;23.282;2023-04-28T02:28:07;9.93;;;5.70;;
6463;SDS011;3265;42.694;23.282;2023-04-28T02:30:34;8.57;;;5.70;;
6463;SDS011;3265;42.694;23.282;2023-04-28T02:33:02;10.80;;;5.27;;
6463;SDS011;3265;42.694;23.282;2023-04-28T02:35:29;8.60;;;5.50;;
6463;SDS011;3265;42.694;23.282;2023-04-28T02:37:56;8.87;;;5.53;;
6463;SDS011;3265;42.694;23.282;2023-04-28T02:40:23;10.47;;;5.30;;
6463;SDS011;3265;42.694;23.282;2023-04-28T02:42:50;8.20;;;5.80;;
6463;SDS011;3265;42.694;23.282;2023-04-28T02:45:16;11.63;;;5.90;;
6463;SDS011;3265;42.694;23.282;2023-04-28T02:47:43;11.03;;;5.70;;
6463;SDS011;3265;42.694;23.282;2023-04-28T02:50:11;9.43;;;6.17;;
6463;SDS011;3265;42.694;23.282;2023-04-28T02:52:38;9.57;;;5.53;;
6463;SDS011;3265;42.694;23.282;2023-04-28T02:55:05;8.63;;;5.50;;
6463;SDS011;3265;42.694;23.282;2023-04-28T02:57:32;9.20;;;5.63;;
6463;SDS011;3265;42.694;23.282;2023-04-28T02:59:59;11.10;;;5.50;;
6463;SDS011;3265;42.694;23.282;2023-04-28T03:02:26;6.30;;;4.80;;
6463;SDS011;3265;42.694;23.282;2023-04-28T03:04:53;8.10;;;4.43;;
6463;SDS011;3265;42.694;23.282;2023-04-28T03:07:21;9.07;;;4.80;;
6463;SDS011;3265;42.694;23.282;2023-04-28T03:09:47;8.47;;;4.63;;
6463;SDS011;3265;42.694;23.282;2023-04-28T03:12:14;6.37;;;4.53;;
6463;SDS011;3265;42.694;23.282;2023-04-28T03:14:41;11.10;;;4.83;;
6463;SDS011;3265;42.694;23.282;2023-04-28T03:17:08;7.33;;;4.43;;
6463;SDS011;3265;42.694;23.282;2023-04-28T03:19:35;8.10;;;4.80;;
6463;SDS011;3265;42.694;23.282;2023-04-28T03:22:02;9.63;;;4.77;;
6463;SDS011;3265;42.694;23.282;2023-04-28T03:24:30;11.03;;;5.00;;
6463;SDS011;3265;42.694;23.282;2023-04-28T03:26:57;12.33;;;5.60;;
6463;SDS011;3265;42.694;23.282;2023-04-28T03:29:24;10.30;;;5.80;;
6463;SDS011;3265;42.694;23.282;2023-04-28T03:31:50;11.50;;;6.03;;
6463;SDS011;3265;42.694;23.282;2023-04-28T03:34:17;10.00;;;5.93;;
6463;SDS011;3265;42.694;23.282;2023-04-28T03:36:44;10.80;;;6.43;;
6463;SDS011;3265;42.694;23.282;2023-04-28T03:39:11;11.27;;;6.20;;
6463;SDS011;3265;42.694;23.282;2023-04-28T03:41:39;8.80;;;5.53;;
6463;SDS011;3265;42.694;23.282;2023-04-28T03:44:06;13.10;;;5.80;;
6463;SDS011;3265;42.694;23.282;2023-04-28T03:46:32;9.23;;;5.40;;
6463;SDS011;3265;42.694;23.282;2023-04-28T03:48:59;11.87;;;5.53;;
6463;SDS011;3265;42.694;23.282;2023-04-28T03:51:26;11.07;;;6.40;;
6463;SDS011;3265;42.694;23.282;2023-04-28T03:53:53;9.97;;;5.70;;
6463;SDS011;3265;42.694;23.282;2023-04-28T03:56:20;12.13;;;6.07;;
6463;SDS011;3265;42.694;23.282;2023-04-28T03:58:48;11.63;;;5.90;;
6463;SDS011;3265;42.694;23.282;2023-04-28T04:01:15;19.10;;;5.80;;
6463;SDS011;3265;42.694;23.282;2023-04-28T04:03:42;11.70;;;6.07;;
6463;SDS011;3265;42.694;23.282;2023-04-28T04:06:09;9.63;;;6.13;;
6463;SDS011;3265;42.694;23.282;2023-04-28T04:08:36;9.77;;;5.97;;
6463;SDS011;3265;42.694;23.282;2023-04-28T04:11:02;12.63;;;5.67;;
6463;SDS011;3265;42.694;23.282;2023-04-28T04:13:29;8.20;;;5.73;;
6463;SDS011;3265;42.694;23.282;2023-04-28T04:15:57;11.00;;;5.83;;
6463;SDS011;3265;42.694;23.282;2023-04-28T04:18:24;8.43;;;5.50;;
6463;SDS011;3265;42.694;23.282;2023-04-28T04:20:51;11.00;;;5.83;;
6463;SDS011;3265;42.694;23.282;2023-04-28T04:23:20;13.87;;;5.47;;
6463;SDS011;3265;42.694;23.282;2023-04-28T04:25:46;13.10;;;5.80;;
6463;SDS011;3265;42.694;23.282;2023-04-28T04:28:13;8.87;;;5.27;;
6463;SDS011;3265;42.694;23.282;2023-04-28T04:30:40;13.80;;;5.40;;
6463;SDS011;3265;42.694;23.282;2023-04-28T04:33:09;13.00;;;4.57;;
6463;SDS011;3265;42.694;23.282;2023-04-28T04:35:35;10.70;;;5.10;;
6463;SDS011;3265;42.694;23.282;2023-04-28T04:38:02;7.40;;;4.87;;
6463;SDS011;3265;42.694;23.282;2023-04-28T04:40:29;6.10;;;4.17;;
6463;SDS011;3265;42.694;23.282;2023-04-28T04:42:56;7.33;;;4.30;;
6463;SDS011;3265;42.694;23.282;2023-04-28T04:45:23;10.97;;;4.63;;
6463;SDS011;3265;42.694;23.282;2023-04-28T04:47:49;8.13;;;4.40;;
6463;SDS011;3265;42.694;23.282;2023-04-28T04:50:18;7.87;;;4.73;;
6463;SDS011;3265;42.694;23.282;2023-04-28T04:52:45;9.30;;;4.67;;
6463;SDS011;3265;42.694;23.282;2023-04-28T04:55:12;9.00;;;4.77;;
6463;SDS011;3265;42.694;23.282;2023-04-28T05:00:19;11.43;;;4.20;;
6463;SDS011;3265;42.694;23.282;2023-04-28T05:02:46;7.03;;;4.10;;
6463;SDS011;3265;42.694;23.282;2023-04-28T05:05:13;6.27;;;4.43;;
6463;SDS011;3265;42.694;23.282;2023-04-28T05:07:41;8.93;;;4.67;;
6463;SDS011;3265;42.694;23.282;2023-04-28T05:10:09;7.50;;;4.07;;
6463;SDS011;3265;42.694;23.282;2023-04-28T05:12:36;6.90;;;4.77;;
6463;SDS011;3265;42.694;23.282;2023-04-28T05:15:04;5.60;;;4.33;;
6463;SDS011;3265;42.694;23.282;2023-04-28T05:17:31;6.00;;;4.60;;
6463;SDS011;3265;42.694;23.282;2023-04-28T05:19:58;8.13;;;4.90;;
6463;SDS011;3265;42.694;23.282;2023-04-28T05:22:25;10.07;;;5.20;;
6463;SDS011;3265;42.694;23.282;2023-04-28T05:24:53;8.97;;;4.00;;
6463;SDS011;3265;42.694;23.282;2023-04-28T05:27:20;9.33;;;4.27;;
6463;SDS011;3265;42.694;23.282;2023-04-28T05:29:47;9.37;;;4.37;;
6463;SDS011;3265;42.694;23.282;2023-04-28T05:32:14;9.63;;;5.60;;
6463;SDS011;3265;42.694;23.282;2023-04-28T05:34:40;9.13;;;6.83;;
6463;SDS011;3265;42.694;23.282;2023-04-28T05:37:07;10.93;;;6.67;;
6463;SDS011;3265;42.694;23.282;2023-04-28T05:39:34;11.60;;;6.30;;
6463;SDS011;3265;42.694;23.282;2023-04-28T05:42:03;8.30;;;4.67;;
6463;SDS011;3265;42.694;23.282;2023-04-28T05:44:30;8.83;;;4.43;;
6463;SDS011;3265;42.694;23.282;2023-04-28T05:46:57;6.93;;;4.63;;
6463;SDS011;3265;42.694;23.282;2023-04-28T05:49:24;6.53;;;4.30;;
6463;SDS011;3265;42.694;23.282;2023-04-28T05:51:51;7.80;;;4.50;;
6463;SDS011;3265;42.694;23.282;2023-04-28T05:54:18;7.80;;;5.23;;
6463;SDS011;3265;42.694;23.282;2023-04-28T05:56:45;11.97;;;4.53;;
6463;SDS011;3265;42.694;23.282;2023-04-28T05:59:13;7.73;;;4.80;;
6463;SDS011;3265;42.694;23.282;2023-04-28T06:01:41;14.33;;;4.90;;
6463;SDS011;3265;42.694;23.282;2023-04-28T06:04:08;9.97;;;5.07;;
6463;SDS011;3265;42.694;23.282;2023-04-28T06:06:34;10.57;;;4.30;;
6463;SDS011;3265;42.694;23.282;2023-04-28T06:09:01;7.30;;;4.30;;
6463;SDS011;3265;42.694;23.282;2023-04-28T06:11:28;9.00;;;4.67;;
6463;SDS011;3265;42.694;23.282;2023-04-28T06:13:55;8.43;;;4.30;;
6463;SDS011;3265;42.694;23.282;2023-04-28T06:16:23;9.07;;;4.47;;
6463;SDS011;3265;42.694;23.282;2023-04-28T06:18:50;7.97;;;4.20;;
6463;SDS011;3265;42.694;23.282;2023-04-28T06:21:17;5.60;;;3.80;;
6463;SDS011;3265;42.694;23.282;2023-04-28T06:23:45;6.27;;;4.30;;
6463;SDS011;3265;42.694;23.282;2023-04-28T06:26:12;7.43;;;4.17;;
6463;SDS011;3265;42.694;23.282;2023-04-28T06:28:39;6.50;;;4.30;;
6463;SDS011;3265;42.694;23.282;2023-04-28T06:31:06;11.40;;;4.60;;
6463;SDS011;3265;42.694;23.282;2023-04-28T06:33:34;7.30;;;4.33;;
6463;SDS011;3265;42.694;23.282;2023-04-28T06:39:13;7.70;;;3.93;;
6463;SDS011;3265;42.694;23.282;2023-04-28T06:41:40;6.53;;;3.97;;
6463;SDS011;3265;42.694;23.282;2023-04-28T06:44:07;8.57;;;4.57;;
6463;SDS011;3265;42.694;23.282;2023-04-28T06:46:35;9.07;;;4.47;;
6463;SDS011;3265;42.694;23.282;2023-04-28T06:49:03;10.63;;;4.50;;
6463;SDS011;3265;42.694;23.282;2023-04-28T06:51:30;6.60;;;4.00;;
6463;SDS011;3265;42.694;23.282;2023-04-28T06:53:57;9.73;;;4.50;;
6463;SDS011;3265;42.694;23.282;2023-04-28T06:56:24;6.30;;;4.00;;
6463;SDS011;3265;42.694;23.282;2023-04-28T06:58:53;6.93;;;4.50;;
6463;SDS011;3265;42.694;23.282;2023-04-28T07:01:20;10.43;;;4.33;;
6463;SDS011;3265;42.694;23.282;2023-04-28T07:03:47;6.90;;;4.90;;
6463;SDS011;3265;42.694;23.282;2023-04-28T07:06:15;8.53;;;5.30;;
6463;SDS011;3265;42.694;23.282;2023-04-28T07:08:42;10.27;;;5.00;;
6463;SDS011;3265;42.694;23.282;2023-04-28T07:11:09;8.60;;;4.83;;
6463;SDS011;3265;42.694;23.282;2023-04-28T07:13:36;8.43;;;4.87;;
6463;SDS011;3265;42.694;23.282;2023-04-28T07:16:02;6.23;;;3.77;;
6463;SDS011;3265;42.694;23.282;2023-04-28T07:18:30;8.20;;;4.03;;
6463;SDS011;3265;42.694;23.282;2023-04-28T07:20:57;11.27;;;4.43;;
6463;SDS011;3265;42.694;23.282;2023-04-28T07:23:25;9.30;;;3.67;;
6463;SDS011;3265;42.694;23.282;2023-04-28T07:25:52;10.80;;;3.80;;
6463;SDS011;3265;42.694;23.282;2023-04-28T07:28:19;9.40;;;3.83;;
6463;SDS011;3265;42.694;23.282;2023-04-28T07:30:46;6.87;;;4.10;;
6463;SDS011;3265;42.694;23.282;2023-04-28T07:33:12;6.40;;;3.73;;
6463;SDS011;3265;42.694;23.282;2023-04-28T07:35:39;8.13;;;3.87;;
6463;SDS011;3265;42.694;23.282;2023-04-28T07:38:06;6.40;;;3.70;;
6463;SDS011;3265;42.694;23.282;2023-04-28T07:40:34;7.37;;;3.57;;
6463;SDS011;3265;42.694;23.282;2023-04-28T07:43:01;5.87;;;4.00;;
6463;SDS011;3265;42.694;23.282;2023-04-28T07:45:28;6.47;;;3.50;;
6463;SDS011;3265;42.694;23.282;2023-04-28T07:47:55;6.20;;;3.50;;
6463;SDS011;3265;42.694;23.282;2023-04-28T07:50:22;4.83;;;3.47;;
6463;SDS011;3265;42.694;23.282;2023-04-28T07:52:49;7.97;;;3.50;;
6463;SDS011;3265;42.694;23.282;2023-04-28T07:55:16;8.27;;;3.60;;
6463;SDS011;3265;42.694;23.282;2023-04-28T07:57:44;7.50;;;3.60;;
6463;SDS011;3265;42.694;23.282;2023-04-28T08:00:11;4.87;;;3.27;;
6463;SDS011;3265;42.694;23.282;2023-04-28T08:02:38;7.40;;;4.10;;
6463;SDS011;3265;42.694;23.282;2023-04-28T08:05:05;8.13;;;3.33;;
6463;SDS011;3265;42.694;23.282;2023-04-28T08:07:33;5.70;;;3.80;;
6463;SDS011;3265;42.694;23.282;2023-04-28T08:10:01;5.57;;;3.43;;
6463;SDS011;3265;42.694;23.282;2023-04-28T08:12:27;6.53;;;3.50;;
6463;SDS011;3265;42.694;23.282;2023-04-28T08:14:56;5.03;;;3.63;;
6463;SDS011;3265;42.694;23.282;2023-04-28T08:17:23;6.00;;;3.63;;
6463;SDS011;3265;42.694;23.282;2023-04-28T08:19:50;5.57;;;3.27;;
6463;SDS011;3265;42.694;23.282;2023-04-28T08:22:17;5.47;;;3.43;;
6463;SDS011;3265;42.694;23.282;2023-04-28T08:24:44;5.47;;;3.37;;
6463;SDS011;3265;42.694;23.282;2023-04-28T08:27:11;4.47;;;3.47;;
6463;SDS011;3265;42.694;23.282;2023-04-28T08:29:38;6.10;;;3.53;;
6463;SDS011;3265;42.694;23.282;2023-04-28T08:32:06;6.43;;;3.40;;
6463;SDS011;3265;42.694;23.282;2023-04-28T08:34:33;6.57;;;3.07;;
6463;SDS011;3265;42.694;23.282;2023-04-28T08:37:00;7.47;;;3.60;;
6463;SDS011;3265;42.694;23.282;2023-04-28T08:39:27;5.77;;;3.63;;
6463;SDS011;3265;42.694;23.282;2023-04-28T08:41:55;9.83;;;3.30;;
6463;SDS011;3265;42.694;23.282;2023-04-28T08:44:22;7.13;;;3.40;;
6463;SDS011;3265;42.694;23.282;2023-04-28T08:46:49;6.27;;;3.23;;
6463;SDS011;3265;42.694;23.282;2023-04-28T08:49:25;5.20;;;3.00;;
6463;SDS011;3265;42.694;23.282;2023-04-28T08:51:59;7.20;;;3.27;;
6463;SDS011;3265;42.694;23.282;2023-04-28T08:54:26;7.20;;;3.00;;
6463;SDS011;3265;42.694;23.282;2023-04-28T08:56:56;4.53;;;3.20;;
6463;SDS011;3265;42.694;23.282;2023-04-28T08:59:23;6.77;;;3.37;;
6463;SDS011;3265;42.694;23.282;2023-04-28T09:01:51;5.53;;;3.27;;
6463;SDS011;3265;42.694;23.282;2023-04-28T09:04:18;7.17;;;3.40;;
6463;SDS011;3265;42.694;23.282;2023-04-28T09:06:46;5.40;;;3.50;;
6463;SDS011;3265;42.694;23.282;2023-04-28T09:09:20;5.67;;;3.00;;
6463;SDS011;3265;42.694;23.282;2023-04-28T09:11:49;8.27;;;3.70;;
6463;SDS011;3265;42.694;23.282;2023-04-28T09:14:17;5.00;;;3.33;;
6463;SDS011;3265;42.694;23.282;2023-04-28T09:16:44;7.67;;;3.10;;
6463;SDS011;3265;42.694;23.282;2023-04-28T09:19:10;5.30;;;3.20;;
6463;SDS011;3265;42.694;23.282;2023-04-28T09:21:46;5.83;;;3.33;;
6463;SDS011;3265;42.694;23.282;2023-04-28T09:24:27;5.10;;;3.13;;
6463;SDS011;3265;42.694;23.282;2023-04-28T09:26:54;5.87;;;3.10;;
6463;SDS011;3265;42.694;23.282;2023-04-28T09:29:21;6.87;;;3.00;;
6463;SDS011;3265;42.694;23.282;2023-04-28T09:31:48;8.03;;;3.13;;
6463;SDS011;3265;42.694;23.282;2023-04-28T09:34:15;6.23;;;2.90;;
6463;SDS011;3265;42.694;23.282;2023-04-28T09:36:42;8.23;;;3.17;;
6463;SDS011;3265;42.694;23.282;2023-04-28T09:39:10;5.20;;;2.80;;
6463;SDS011;3265;42.694;23.282;2023-04-28T09:41:37;6.70;;;3.00;;
6463;SDS011;3265;42.694;23.282;2023-04-28T09:44:11;4.97;;;2.77;;
6463;SDS011;3265;42.694;23.282;2023-04-28T09:46:39;9.07;;;3.30;;
6463;SDS011;3265;42.694;23.282;2023-04-28T09:49:06;7.97;;;3.23;;
6463;SDS011;3265;42.694;23.282;2023-04-28T09:51:34;6.30;;;3.17;;
6463;SDS011;3265;42.694;23.282;2023-04-28T09:54:01;4.80;;;3.03;;
6463;SDS011;3265;42.694;23.282;2023-04-28T09:56:31;3.77;;;2.70;;
6463;SDS011;3265;42.694;23.282;2023-04-28T09:58:59;5.10;;;2.77;;
6463;SDS011;3265;42.694;23.282;2023-04-28T10:01:27;5.37;;;2.77;;
6463;SDS011;3265;42.694;23.282;2023-04-28T10:03:58;6.07;;;2.70;;
6463;SDS011;3265;42.694;23.282;2023-04-28T10:06:27;4.27;;;2.50;;
6463;SDS011;3265;42.694;23.282;2023-04-28T10:08:55;8.50;;;2.53;;
6463;SDS011;3265;42.694;23.282;2023-04-28T10:11:27;7.73;;;2.97;;
6463;SDS011;3265;42.694;23.282;2023-04-28T10:13:56;3.70;;;2.63;;
6463;SDS011;3265;42.694;23.282;2023-04-28T10:16:22;3.27;;;2.47;;
6463;SDS011;3265;42.694;23.282;2023-04-28T10:18:51;6.50;;;2.77;;
6463;SDS011;3265;42.694;23.282;2023-04-28T10:21:21;4.97;;;3.33;;
6463;SDS011;3265;42.694;23.282;2023-04-28T10:23:58;6.50;;;2.43;;
6463;SDS011;3265;42.694;23.282;2023-04-28T10:29:35;5.60;;;2.63;;
6463;SDS011;3265;42.694;23.282;2023-04-28T10:32:17;5.33;;;2.53;;
6463;SDS011;3265;42.694;23.282;2023-04-28T10:34:46;6.90;;;2.50;;
6463;SDS011;3265;42.694;23.282;2023-04-28T10:37:13;3.80;;;2.33;;
6463;SDS011;3265;42.694;23.282;2023-04-28T10:42:51;7.20;;;3.13;;
6463;SDS011;3265;42.694;23.282;2023-04-28T10:48:21;8.03;;;2.90;;
6463;SDS011;3265;42.694;23.282;2023-04-28T10:59:49;4.50;;;2.50;;
6463;SDS011;3265;42.694;23.282;2023-04-28T11:02:35;4.13;;;2.90;;
6463;SDS011;3265;42.694;23.282;2023-04-28T11:05:10;3.83;;;2.60;;
6463;SDS011;3265;42.694;23.282;2023-04-28T11:07:38;3.87;;;2.23;;
6463;SDS011;3265;42.694;23.282;2023-04-28T11:10:06;6.73;;;2.33;;
6463;SDS011;3265;42.694;23.282;2023-04-28T11:12:33;5.50;;;2.50;;
6463;SDS011;3265;42.694;23.282;2023-04-28T11:15:09;7.33;;;2.50;;
6463;SDS011;3265;42.694;23.282;2023-04-28T11:17:38;3.93;;;2.23;;
6463;SDS011;3265;42.694;23.282;2023-04-28T11:20:07;4.43;;;2.30;;
6463;SDS011;3265;42.694;23.282;2023-04-28T11:22:41;4.57;;;2.20;;
6463;SDS011;3265;42.694;23.282;2023-04-28T11:25:12;6.75;;;2.55;;
6463;SDS011;3265;42.694;23.282;2023-04-28T11:27:39;4.00;;;2.30;;
6463;SDS011;3265;42.694;23.282;2023-04-28T11:30:18;3.50;;;2.60;;
6463;SDS011;3265;42.694;23.282;2023-04-28T11:32:48;5.22;;;2.45;;
6463;SDS011;3265;42.694;23.282;2023-04-28T11:35:15;4.00;;;2.63;;
6463;SDS011;3265;42.694;23.282;2023-04-28T11:37:44;3.28;;;2.38;;
6463;SDS011;3265;42.694;23.282;2023-04-28T11:40:11;5.00;;;2.58;;
6463;SDS011;3265;42.694;23.282;2023-04-28T11:42:45;4.82;;;2.75;;
6463;SDS011;3265;42.694;23.282;2023-04-28T11:45:12;5.95;;;3.00;;
6463;SDS011;3265;42.694;23.282;2023-04-28T11:47:39;4.80;;;2.40;;
6463;SDS011;3265;42.694;23.282;2023-04-28T11:50:06;6.05;;;2.50;;
6463;SDS011;3265;42.694;23.282;2023-04-28T11:52:33;2.97;;;2.40;;
6463;SDS011;3265;42.694;23.282;2023-04-28T11:55:02;6.22;;;2.70;;
6463;SDS011;3265;42.694;23.282;2023-04-28T11:57:29;3.95;;;2.60;;
6463;SDS011;3265;42.694;23.282;2023-04-28T12:00:10;3.67;;;2.67;;
6463;SDS011;3265;42.694;23.282;2023-04-28T12:02:38;5.47;;;2.53;;
6463;SDS011;3265;42.694;23.282;2023-04-28T12:05:06;5.03;;;2.30;;
6463;SDS011;3265;42.694;23.282;2023-04-28T12:07:38;3.90;;;2.45;;
6463;SDS011;3265;42.694;23.282;2023-04-28T12:10:12;4.80;;;2.47;;
6463;SDS011;3265;42.694;23.282;2023-04-28T12:12:40;6.05;;;2.30;;
6463;SDS011;3265;42.694;23.282;2023-04-28T12:15:08;5.25;;;2.40;;
6463;SDS011;3265;42.694;23.282;2023-04-28T12:17:35;5.40;;;2.40;;
6463;SDS011;3265;42.694;23.282;2023-04-28T12:20:04;6.30;;;2.40;;
6463;SDS011;3265;42.694;23.282;2023-04-28T12:22:42;4.68;;;2.60;;
6463;SDS011;3265;42.694;23.282;2023-04-28T12:25:12;3.22;;;2.10;;
6463;SDS011;3265;42.694;23.282;2023-04-28T12:27:56;5.75;;;2.92;;
6463;SDS011;3265;42.694;23.282;2023-04-28T12:30:26;6.40;;;3.10;;
6463;SDS011;3265;42.694;23.282;2023-04-28T12:32:54;6.32;;;2.20;;
6463;SDS011;3265;42.694;23.282;2023-04-28T12:35:21;7.25;;;2.63;;
6463;SDS011;3265;42.694;23.282;2023-04-28T12:37:48;4.55;;;2.40;;
6463;SDS011;3265;42.694;23.282;2023-04-28T12:40:17;4.75;;;2.25;;
6463;SDS011;3265;42.694;23.282;2023-04-28T12:42:44;3.47;;;2.03;;
6463;SDS011;3265;42.694;23.282;2023-04-28T12:45:11;3.78;;;2.28;;
6463;SDS011;3265;42.694;23.282;2023-04-28T12:47:38;7.90;;;2.30;;
6463;SDS011;3265;42.694;23.282;2023-04-28T12:50:06;3.83;;;2.30;;
6463;SDS011;3265;42.694;23.282;2023-04-28T12:52:34;3.85;;;2.17;;
6463;SDS011;3265;42.694;23.282;2023-04-28T12:55:01;8.00;;;2.42;;
6463;SDS011;3265;42.694;23.282;2023-04-28T12:57:29;4.30;;;2.70;;
6463;SDS011;3265;42.694;23.282;2023-04-28T12:59:56;4.05;;;2.30;;
6463;SDS011;3265;42.694;23.282;2023-04-28T13:02:23;5.63;;;2.35;;
6463;SDS011;3265;42.694;23.282;2023-04-28T13:04:50;4.28;;;2.53;;
6463;SDS011;3265;42.694;23.282;2023-04-28T13:07:17;4.28;;;2.55;;
6463;SDS011;3265;42.694;23.282;2023-04-28T13:09:44;4.50;;;2.60;;
6463;SDS011;3265;42.694;23.282;2023-04-28T13:12:11;4.45;;;2.38;;
6463;SDS011;3265;42.694;23.282;2023-04-28T13:14:39;5.18;;;2.50;;
6463;SDS011;3265;42.694;23.282;2023-04-28T13:17:07;5.72;;;2.42;;
6463;SDS011;3265;42.694;23.282;2023-04-28T13:19:34;4.18;;;2.28;;
6463;SDS011;3265;42.694;23.282;2023-04-28T13:22:02;4.68;;;2.10;;
6463;SDS011;3265;42.694;23.282;2023-04-28T13:24:30;4.60;;;2.45;;
6463;SDS011;3265;42.694;23.282;2023-04-28T13:26:58;6.35;;;2.25;;
6463;SDS011;3265;42.694;23.282;2023-04-28T13:29:26;4.80;;;2.70;;
6463;SDS011;3265;42.694;23.282;2023-04-28T13:31:54;4.70;;;2.80;;
6463;SDS011;3265;42.694;23.282;2023-04-28T13:34:21;6.95;;;2.40;;
6463;SDS011;3265;42.694;23.282;2023-04-28T13:36:48;3.78;;;2.33;;
6463;SDS011;3265;42.694;23.282;2023-04-28T13:39:15;7.40;;;2.70;;
6463;SDS011;3265;42.694;23.282;2023-04-28T13:41:44;7.05;;;2.50;;
6463;SDS011;3265;42.694;23.282;2023-04-28T13:44:11;4.57;;;2.22;;
6463;SDS011;3265;42.694;23.282;2023-04-28T13:46:37;3.60;;;2.33;;
6463;SDS011;3265;42.694;23.282;2023-04-28T13:49:05;5.55;;;2.53;;
6463;SDS011;3265;42.694;23.282;2023-04-28T13:51:32;4.03;;;2.28;;
6463;SDS011;3265;42.694;23.282;2023-04-28T13:53:59;4.28;;;2.60;;
6463;SDS011;3265;42.694;23.282;2023-04-28T13:56:29;5.93;;;2.42;;
6463;SDS011;3265;42.694;23.282;2023-04-28T13:58:56;7.85;;;3.22;;
6463;SDS011;3265;42.694;23.282;2023-04-28T14:01:23;7.05;;;2.50;;
6463;SDS011;3265;42.694;23.282;2023-04-28T14:03:50;3.63;;;2.70;;
6463;SDS011;3265;42.694;23.282;2023-04-28T14:06:18;4.95;;;2.83;;
6463;SDS011;3265;42.694;23.282;2023-04-28T14:08:45;4.50;;;2.10;;
6463;SDS011;3265;42.694;23.282;2023-04-28T14:11:12;5.03;;;2.42;;
6463;SDS011;3265;42.694;23.282;2023-04-28T14:13:39;5.78;;;2.25;;
6463;SDS011;3265;42.694;23.282;2023-04-28T14:16:06;6.57;;;2.83;;
6463;SDS011;3265;42.694;23.282;2023-04-28T14:18:33;6.43;;;2.67;;
6463;SDS011;3265;42.694;23.282;2023-04-28T14:21:00;7.85;;;3.17;;
6463;SDS011;3265;42.694;23.282;2023-04-28T14:23:29;5.97;;;2.78;;
6463;SDS011;3265;42.694;23.282;2023-04-28T14:25:56;6.20;;;3.08;;
6463;SDS011;3265;42.694;23.282;2023-04-28T14:28:23;7.82;;;2.92;;
6463;SDS011;3265;42.694;23.282;2023-04-28T14:30:51;8.40;;;3.60;;
6463;SDS011;3265;42.694;23.282;2023-04-28T14:33:19;3.85;;;2.35;;
6463;SDS011;3265;42.694;23.282;2023-04-28T14:35:46;5.93;;;2.60;;
6463;SDS011;3265;42.694;23.282;2023-04-28T14:38:13;4.18;;;2.95;;
6463;SDS011;3265;42.694;23.282;2023-04-28T14:40:41;5.38;;;2.35;;
6463;SDS011;3265;42.694;23.282;2023-04-28T14:43:08;7.68;;;2.70;;
6463;SDS011;3265;42.694;23.282;2023-04-28T14:45:34;6.10;;;2.58;;
6463;SDS011;3265;42.694;23.282;2023-04-28T14:48:04;5.00;;;2.65;;
6463;SDS011;3265;42.694;23.282;2023-04-28T14:50:34;6.25;;;2.50;;
6463;SDS011;3265;42.694;23.282;2023-04-28T14:53:07;5.07;;;2.83;;
6463;SDS011;3265;42.694;23.282;2023-04-28T14:55:34;4.82;;;2.97;;
6463;SDS011;3265;42.694;23.282;2023-04-28T14:58:02;4.93;;;2.75;;
6463;SDS011;3265;42.694;23.282;2023-04-28T15:00:29;4.80;;;2.60;;
6463;SDS011;3265;42.694;23.282;2023-04-28T15:02:56;9.75;;;3.13;;
6463;SDS011;3265;42.694;23.282;2023-04-28T15:05:22;4.70;;;2.70;;
6463;SDS011;3265;42.694;23.282;2023-04-28T15:07:50;6.10;;;2.78;;
6463;SDS011;3265;42.694;23.282;2023-04-28T15:10:17;6.38;;;2.70;;
6463;SDS011;3265;42.694;23.282;2023-04-28T15:12:43;7.13;;;2.80;;
6463;SDS011;3265;42.694;23.282;2023-04-28T15:15:12;5.05;;;2.58;;
6463;SDS011;3265;42.694;23.282;2023-04-28T15:17:38;6.07;;;2.88;;
6463;SDS011;3265;42.694;23.282;2023-04-28T15:20:09;5.35;;;3.03;;
6463;SDS011;3265;42.694;23.282;2023-04-28T15:22:36;6.45;;;3.50;;
6463;SDS011;3265;42.694;23.282;2023-04-28T15:25:03;3.90;;;3.08;;
6463;SDS011;3265;42.694;23.282;2023-04-28T15:27:31;4.53;;;3.20;;